Tiempo atmosférico en la estación meteorológica de Reus Aeropuerto, Tarragona (71 m.)



Fecha
DESCASC
Temp. máxima en grados centígrados (hora)
DESCASC
Temp. mínima en grados centígrados (hora)
DESCASC
Temp. media en grados centígrados
DESCASC
Racha de viento máxima en m/sg (hora)
DESCASC
Velocidad máxima media en intervalos de 10 minutos(hora)
DESCASC
Precipitaciones diarias en mm
DESCASC
Precipitaciones de 00:00 a 06:00 en mm
DESCASC
Precipitaciones de 06:00 a 12:00 en mm
DESCASC
Precipitaciones de 12:00 a 18:00 en mm
DESCASC
Precipitaciones de 18:00 a 24:00 en mm
DESCASC
27-01-2020 15.6 (13:50) 2.5 (04:10) 9.1 10.83 (12:10) 7.78 (12:10) 0 0 0 0 0
26-01-2020 15.8 (13:10) 4.7 (23:20) 10.3 9.72 (15:00) 6.67 (15:00) 0 0 0 0 0
25-01-2020 13.7 (15:50) 6.6 (00:00) 10.1 5 (21:10) 3.33 (01:10) 0 0 0 0 0
24-01-2020 15.6 (14:00) 2.8 (00:00) 9.2 6.67 (14:40) 4.17 (14:40) 0 0 0 0 0
23-01-2020 14.8 (14:30) 4.9 (00:00) 9.9 18.06 (03:10) 13.61 (03:10) 23.8 21.8 2 0 0
22-01-2020 13.7 (12:30) 7.8 (00:00) 10.8 12.78 (19:30) 9.17 (19:40) 6.2 0 0 0.5 5.7
21-01-2020 -- (--) -- (--) -- -- (--) -- (--) -- 8.1 -- -- 22
20-01-2020 11.1 (16:40) 7.6 (00:00) 9.4 22.22 (15:50) 14.17 (17:20) 0.6 0 0 0 0.6
19-01-2020 10.3 (03:50) 7.3 (00:00) 8.8 13.89 (21:10) 9.17 (21:00) 9.1 0 9.1 0 0
18-01-2020 14.7 (13:00) 5 (00:00) 9.8 8.89 (00:20) 6.67 (00:20) 2 0 0 0 2
17-01-2020 17.4 (12:50) 4.3 (00:00) 10.8 18.06 (13:50) 13.33 (13:40) 0 0 0 0 0
16-01-2020 16.5 (15:50) 2.1 (00:00) 9.3 5 (01:10) 4.17 (03:10) 0 0 0 0 0
15-01-2020 15 (15:50) -0.4 (00:00) 7.3 7.22 (16:20) 5.28 (16:30) 0 0 0 0 0
14-01-2020 15.2 (13:50) -0.8 (-00:0) 7.2 5 (00:50) 3.89 (08:30) 0 0 0 0 0
13-01-2020 13.6 (13:40) -1.4 (-00:0) 6.1 5 (21:50) 4.44 (22:00) 0 0 0 0 0
12-01-2020 15.7 (15:50) -1.4 (08:30) 7.1 5.83 (16:50) 3.89 (16:40) 0 0 0 0 0
11-01-2020 14.9 (14:40) 0 (00:00) 7.4 6.67 (02:30) 4.44 (13:00) 0 0 0 0 0
10-01-2020 12 (14:40) 2.4 (00:00) 7.2 8.89 (15:30) 6.11 (15:30) 0.3 0 0.3 0 0
09-01-2020 15 (14:20) 2.8 (00:00) 8.9 6.67 (13:30) 4.17 (14:10) 0 0 0 0 0
08-01-2020 17.3 (14:20) 0.1 (00:00) 8.7 -- (--) -- (--) 0 0 0 0 0
07-01-2020 14 (14:40) 0.3 (00:00) 7.2 4.17 (15:00) 3.33 (15:10) 0 0 0 0 0
06-01-2020 14.9 (13:40) 1.7 (00:00) 8.3 5 (14:00) 3.89 (05:40) 0 0 0 0 0
05-01-2020 16.1 (14:20) -0.2 (00:00) 8 5.83 (17:50) 3.89 (20:00) 0 0 0 0 0
04-01-2020 14.3 (14:00) -1.7 (-00:0) 6.3 7.22 (15:00) 5.28 (15:20) 0 0 0 0 0
03-01-2020 11.2 (14:10) 0.7 (00:00) 5.9 5 (18:10) 3.89 (20:30) 0 0 0 0 0
02-01-2020 13.5 (14:40) 0.5 (00:00) 7 6.11 (15:30) 3.89 (01:30) 0 0 0 0 0
01-01-2020 12.5 (14:40) -1.2 (-00:0) 5.6 4.72 (14:50) 3.33 (15:20) 0 0 0 0 0
31-12-2019 14.2 (14:30) 0.8 (00:00) 7.5 5 (14:50) 3.61 (14:50) -- 0 0 0 --
30-12-2019 15.3 (15:20) 3.2 (00:00) 9.3 5.83 (14:30) 3.89 (14:30) 0 0 0 0 0

Gráficas

Temp. máximas Temp. mínimas Temp. medias Precipitaciones Rachas de viento máximas Velocidades máximas media en intervalos de 10 minutos

Datos horarios

Fecha y hora oficial Temperatura (ºC) Velocidad del viento (km/h) Dirección del viento Racha (km/h) Dirección de racha Precipitación (mm) Presión (hPa) Tendencia (hPa) Humedad (%)
2020-01-28 23:00:00 12 11 Noroeste 18 Oeste 0 1010.2 0.5 79
2020-01-28 22:00:00 9.1 11 Noroeste 13 Oeste 0 1010.3 0.8 88
2020-01-28 21:00:00 9.3 0 Calma 9 Norte 0 1010.2 1.2 85
2020-01-28 20:00:00 9.9 2 Nordeste 8 Sudoeste 0 1009.7 1.4 84
2020-01-28 19:00:00 12.5 0 Calma 9 Sur 0 1009.5 1.1 75
2020-01-28 18:00:00 15.6 8 Sur 37 Oeste 0 1009 0.5 63
2020-01-28 17:00:00 17.5 22 Oeste 33 Oeste 0 1008.3 -1 54
2020-01-28 16:00:00 17.1 24 Oeste 35 Oeste 0 1008.4 -1.2 55
2020-01-28 15:00:00 17.1 19 Oeste 28 Oeste 0 1008.5 -1.7 55
2020-01-28 14:00:00 16.8 21 Oeste 33 Oeste 0 1009.3 -0.8 57
2020-01-28 13:00:00 16.2 18 Sudoeste 32 Oeste 0 1009.6 -0.4 58
2020-01-28 12:00:00 16.3 18 Oeste 33 Oeste 0 1010.2 1 56
2020-01-28 11:00:00 13.6 13 Oeste 24 Oeste 0 1010.1 1.3 63
2020-01-28 10:00:00 11.4 6 Norte 15 Sudoeste 0 1010 1.5 69
2020-01-28 09:00:00 9.9 12 Oeste 17 Oeste 0 1009.2 0.8 73
2020-01-28 08:00:00 9.5 13 Oeste 21 Oeste 0 1008.8 0.5 73
2020-01-28 07:00:00 9.2 8 Oeste 18 Oeste 0 1008.5 -0.4 73
2020-01-28 06:00:00 11.1 15 Oeste 24 Oeste 0 1008.4 -0.7 65
2020-01-28 05:00:00 10.6 10 Oeste 21 Oeste 0 1008.3 -1.1 66
2020-01-28 04:00:00 10.9 10 Oeste 22 Oeste 0 1008.9 -0.9 63
2020-01-28 03:00:00 10.6 13 Sudoeste 28 Sudoeste 0 1009.1 -0.9 64
2020-01-28 02:00:00 9.9 13 Sudoeste 26 Oeste 0 1009.4 -0.7 66
2020-01-28 01:00:00 8.4 13 Sudoeste 18 Oeste 0 1009.8 -0.4 71
2020-01-28 00:00:00 7.8 14 Oeste 22 Sudoeste 0 1010 -0.1 74
2020-01-27 23:00:00 8.7 15 Sudoeste 26 Sudoeste 0 1010.1 0.3 71
2020-01-27 22:00:00 7.9 12 Oeste 15 Sudoeste 0 1010.2 0.6 74
2020-01-27 21:00:00 9 8 Sudoeste 13 Sudoeste 0 1010.1 0.6 68
2020-01-27 20:00:00 9.3 11 Sudoeste 21 Oeste 0 1009.8 0 66
2020-01-27 19:00:00 9.6 14 Sudoeste 21 Oeste 0 1009.6 -0.3 66
2020-01-27 18:00:00 11.3 12 Sudoeste 26 Oeste 0 1009.5 -0.9 59
2020-01-27 17:00:00 13.3 18 Oeste 33 Oeste 0 1009.8 -1.3 49
2020-01-27 16:00:00 13.6 20 Oeste 35 Oeste 0 1009.9 -2.3 48
2020-01-27 15:00:00 14.2 18 Oeste 39 Oeste 0 1010.4 -2.6 45
2020-01-27 14:00:00 15.5 21 Oeste 33 Oeste 0 1011.1 -2.3 43
2020-01-27 13:00:00 14.9 23 Oeste 39 Oeste 0 1012.2 -0.9 44
2020-01-27 12:00:00 14.4 24 Oeste 37 Oeste 0 1013 -0.5 46
2020-01-27 11:00:00 12.4 16 Oeste 22 Oeste 0 1013.4 0.3 54
2020-01-27 10:00:00 10.6 10 Noroeste 13 Noroeste 0 1013.1 0.2 62
2020-01-27 09:00:00 6.8 12 Noroeste 21 Oeste 0 1013.5 0.6 73
2020-01-27 08:00:00 6.5 16 Oeste 26 Oeste 0 1013.1 0.1 73
2020-01-27 07:00:00 5.3 0 Calma 18 Oeste 0 1012.9 -0.7 78
2020-01-27 06:00:00 5.1 5 Nordeste 13 Oeste 0 1012.9 -1 78
2020-01-27 05:00:00 5.5 10 Oeste 15 Noroeste 0 1013 -0.9 81
2020-01-27 04:00:00 2.7 5 Nordeste 11 Nordeste 0 1013.6 -0.7 92
2020-01-27 03:00:00 3.6 8 Norte 11 Norte 0 1013.9 -0.6 91
2020-01-27 02:00:00 4.2 8 Noroeste 17 Norte 0 1013.9 -0.2 90
2020-01-27 01:00:00 4.4 9 Norte 13 Norte 0 1014.3 0 90
2020-01-27 00:00:00 5 10 Norte 13 Norte 0 1014.5 0.6 91
2020-01-26 23:00:00 5.6 5 Noroeste 11 Noroeste 0 1014.1 1 88
2020-01-26 22:00:00 6.4 9 Norte 13 Norte 0 1014.3 1.6 88
2020-01-26 21:00:00 7.4 7 Norte 11 Norte 0 1013.9 2 83
2020-01-26 20:00:00 8.8 5 Norte 11 Norte 0 1013.1 1.8 80
2020-01-26 19:00:00 10.6 7 Oeste 17 Oeste 0 1012.7 1.8 73
2020-01-26 18:00:00 12.2 13 Oeste 17 Oeste 0 1011.9 1.2 64
2020-01-26 17:00:00 14.6 8 Noroeste 28 Oeste 0 1011.3 0.7 55
2020-01-26 16:00:00 14.6 22 Oeste 30 Oeste 0 1010.9 0 56
2020-01-26 15:00:00 14.5 24 Oeste 35 Oeste 0 1010.7 -0.7 59
2020-01-26 14:00:00 14.4 23 Oeste 33 Oeste 0 1010.6 -0.5 58
2020-01-26 13:00:00 15 8 Este 15 Este 0 1010.9 0.1 62
2020-01-26 12:00:00 14.4 5 Este 13 Nordeste 0 1011.4 1.1 64
2020-01-26 11:00:00 12.8 10 Noroeste 15 Oeste 0 1011.1 1.5 71
2020-01-26 10:00:00 10.9 0 Calma 5 Nordeste 0 1010.8 1.7 89
2020-01-26 09:00:00 6.8 0 Calma 8 Oeste 0 1010.3 1.5 97
2020-01-26 08:00:00 5.7 4 Norte 9 Nordeste 0 1009.6 0.8 96
2020-01-26 07:00:00 6.6 4 Nordeste 8 Este 0 1009.1 0.1 95
2020-01-26 06:00:00 7.5 5 Norte 13 Norte 0 1008.8 -0.5 96
2020-01-26 05:00:00 6.8 10 Norte 13 Norte 0 1008.8 -0.3 95
2020-01-26 04:00:00 7.5 9 Nordeste 11 Nordeste 0 1009 -0.2 97
2020-01-26 03:00:00 6.5 4 Nordeste 9 Norte 0 1009.3 -0.1 96
2020-01-26 02:00:00 6.2 0 Calma 9 Nordeste 0 1009.1 -0.7 96
2020-01-26 01:00:00 6.7 4 Norte 11 Norte 0 1009.2 -0.9 95
2020-01-26 00:00:00 6.7 8 Nordeste 11 Norte 0 1009.4 -0.6 93
2020-01-25 23:00:00 8.6 10 Norte 13 Norte 0 1009.8 -0.1 90
2020-01-25 22:00:00 8.7 9 Norte -- -- 0 1010.1 0.5 90
2020-01-25 21:00:00 9.5 9 Norte 11 Norte 0 1010 0.8 91
2020-01-25 20:00:00 10.2 6 Norte 9 Norte 0 1009.9 0.7 90
2020-01-25 19:00:00 11.1 4 Nordeste 8 Este 0 1009.6 0.2 87
2020-01-25 18:00:00 12.1 5 Sudeste 8 Sudeste 0 1009.2 -0.7 82
2020-01-25 17:00:00 13.2 0 Calma 9 Este 0 1009.2 -1.3 74
2020-01-25 16:00:00 13.7 5 Este 13 Este 0 1009.4 -2.2 72
2020-01-25 15:00:00 13 6 Nordeste 15 Nordeste 0 1009.9 -2.5 74
2020-01-25 14:00:00 12.8 9 Nordeste 15 Norte 0 1010.5 -2 72
2020-01-25 13:00:00 11.9 10 Nordeste 17 Norte 0 1011.6 -0.6 76
2020-01-25 12:00:00 11.3 10 Norte 15 Norte 0 1012.4 0.7 81
2020-01-25 11:00:00 10.8 9 Nordeste 13 Nordeste 0 1012.5 1.2 84
2020-01-25 10:00:00 9.9 8 Nordeste 13 Norte 0 1012.2 1.1 87
2020-01-25 09:00:00 8.8 10 Norte 13 Norte 0 1011.7 0.5 90
2020-01-25 08:00:00 8.9 8 Norte 17 Norte 0 1011.3 -0.1 90
2020-01-25 07:00:00 8.4 9 Norte 15 Norte 0 1011.1 -0.8 91
2020-01-25 06:00:00 8.2 11 Norte 17 Norte 0 1011.2 -0.8 92
2020-01-25 05:00:00 7.6 9 Norte 15 Norte 0 1011.4 -0.7 90
2020-01-25 04:00:00 7.9 5 Norte 11 Norte 0 1011.9 -0.5 88
2020-01-25 03:00:00 8.2 10 Norte 11 Norte 0 1012 -0.8 87
2020-01-25 02:00:00 8.2 5 Nordeste 15 Norte 0 1012.1 -0.9 86
2020-01-25 01:00:00 8.8 11 Norte 15 Norte 0 1012.4 -0.6 86
2020-01-25 00:00:00 8 10 Norte 13 Norte 0 1012.8 0.1 91
2020-01-24 23:00:00 8.1 9 Norte 13 Norte 0 1013 0.7 91
2020-01-24 22:00:00 8 9 Norte 13 Norte 0 1013 1 91
2020-01-24 21:00:00 7.6 11 Norte -- -- 0 1012.7 1.1 91
2020-01-24 20:00:00 7.8 10 Norte 11 Norte 0 1012.3 0.7 91
2020-01-24 19:00:00 9 4 Noroeste 9 Sudoeste 0 1012 0.5 87
2020-01-24 18:00:00 10.5 8 Sudoeste 11 Sur 0 1011.6 0 81
2020-01-24 17:00:00 13 9 Sudoeste 17 Sur 0 1011.6 -0.4 72
2020-01-24 16:00:00 14.3 11 Sudoeste 17 Sur 0 1011.5 -1.2 64
2020-01-24 15:00:00 15.1 13 Sur 24 Sudoeste 0 1011.6 -2.1 61
2020-01-24 14:00:00 15.6 10 Sur 18 Sur 0 1012 -1.8 60
2020-01-24 13:00:00 14.9 8 Sudoeste 15 Sudoeste 0 1012.7 -0.7 63
2020-01-24 12:00:00 13.8 8 Sur 15 Sur 0 1013.7 0.4 68
2020-01-24 11:00:00 10.9 5 Nordeste 9 Nordeste 0 1013.8 0.7 77
2020-01-24 10:00:00 7.6 0 Calma 9 Norte 0 1013.4 0.4 92
2020-01-24 09:00:00 3.7 6 Norte 9 Norte 0 1013.3 0.4 96
2020-01-24 08:00:00 3.3 9 Norte 13 Nordeste 0 1013.1 0 96
2020-01-24 07:00:00 2.9 5 Nordeste 8 Nordeste 0 1013 -0.5 94
2020-01-24 06:00:00 4 5 Norte -- -- 0 1012.9 -0.8 93
2020-01-24 05:00:00 4.5 13 Norte 15 Norte 0 1013.1 -0.9 93
2020-01-24 04:00:00 4.4 8 Norte 13 Norte 0 1013.5 -0.8 92
2020-01-24 03:00:00 5.1 13 Norte 17 Norte 0 1013.7 -0.8 93
2020-01-24 02:00:00 4.6 8 Nordeste 11 Nordeste 0 1014 -0.4 94
2020-01-24 01:00:00 4.9 7 Norte -- -- 0 1014.3 -0.1 94
2020-01-24 00:00:00 5 4 Norte 11 Norte 0 1014.5 0.2 93
2020-01-23 23:00:00 6.5 12 Norte 15 Norte 0 1014.4 0.6 92
2020-01-23 22:00:00 6.8 9 Norte 15 Norte 0 1014.4 1 92
2020-01-23 21:00:00 6.4 8 Norte 13 Norte 0 1014.3 1.3 91
2020-01-23 20:00:00 7.4 -- -- -- -- 0 1013.8 1.2 91
2020-01-23 19:00:00 8.4 -- -- -- -- 0 1013.4 1.2 88
2020-01-23 18:00:00 10.3 4 Sur 15 Sur 0 1013 0.8 78
2020-01-23 17:00:00 13 10 Sur 15 Sur 0 1012.6 0 63
2020-01-23 16:00:00 14 9 Sur 13 Sur 0 1012.2 -0.5 64
2020-01-23 15:00:00 13.3 7 Sudeste 18 Sur 0 1012.2 -0.8 68
2020-01-23 14:00:00 13.7 4 Nordeste 11 Nordeste 0 1012.6 0 67
2020-01-23 13:00:00 13 5 Nordeste 13 Nordeste 0 1012.7 0.7 71
2020-01-23 12:00:00 12 3 Este 11 Nordeste 0 1013 1.6 72
2020-01-23 11:00:00 11.1 2 Nordeste 8 Nordeste 0 1012.6 2 76
2020-01-23 10:00:00 9.5 0 Calma 15 Norte 0.7 1012 2.7 91
2020-01-23 09:00:00 7.2 8 Noroeste 13 Sur 1.3 1011.4 2.6 94
2020-01-23 08:00:00 7.1 9 Sudoeste 11 Sudoeste 0 1010.6 1.7 95
2020-01-23 07:00:00 7 3 Sur 8 Sudeste 0 1009.3 0.8 94
2020-01-23 06:00:00 7.2 2 Noroeste 18 Norte 0 1008.8 0.3 91
2020-01-23 05:00:00 7.8 8 Nordeste 35 Noroeste 0.1 1008.9 0.2 89
2020-01-23 04:00:00 6.9 28 Noroeste 65 Oeste 9.2 1008.5 -1.1 92
2020-01-23 03:00:00 7.1 44 Sudoeste 63 Oeste 7.9 1008.5 -1.5 90
2020-01-23 02:00:00 9.2 13 Noroeste 30 Nordeste 1.1 1008.7 -1.3 92
2020-01-23 01:00:00 9.7 15 Nordeste 37 Este 3.5 1009.6 -0.2 91
2020-01-23 00:00:00 12.8 25 Este 42 Este 0.8 1010 0.6 95
2020-01-22 23:00:00 12.9 24 Este 39 Sudeste 1.5 1010 0.6 94
2020-01-22 22:00:00 12.9 21 Este 42 Este 2.6 1009.8 1 95
2020-01-22 21:00:00 12.9 27 Este 42 Este 0.8 1009.4 0.9 94
2020-01-22 20:00:00 13 29 Este 46 Este 0 1009.4 0.7 93
2020-01-22 19:00:00 13 26 Este 45 Este 0 1008.8 -0.2 92
2020-01-22 18:00:00 13 23 Este 42 Este 0 1008.5 -1 93
2020-01-22 17:00:00 13.1 22 Este 37 Este 0.4 1008.7 -1.9 93
2020-01-22 16:00:00 13.4 18 Este 35 Este 0 1009 -2.2 91
2020-01-22 15:00:00 13.4 18 Este 32 Este 0 1009.5 -2.4 91
2020-01-22 14:00:00 13.1 14 Nordeste 39 Este 0.1 1010.6 -1.7 91
2020-01-22 13:00:00 13.4 22 Este 33 Este 0 1011.2 -0.8 87
2020-01-22 12:00:00 13.5 13 Nordeste 24 Nordeste 0 1011.9 0.1 75
2020-01-22 11:00:00 13.2 15 Nordeste 24 Norte 0 1012.3 0.8 72
2020-01-22 10:00:00 11.4 18 Norte 28 Norte 0 1012 0.7 74
2020-01-22 09:00:00 10.2 18 Norte 28 Norte 0 1011.8 0.7 74
2020-01-22 08:00:00 9.4 19 Norte 28 Norte 0 1011.5 0.2 77
2020-01-22 07:00:00 9.7 21 Norte 37 Nordeste 0 1011.3 -0.3 77
2020-01-22 06:00:00 10.2 23 Norte 35 Nordeste 0 1011.1 -0.9 76
2020-01-22 05:00:00 9.8 22 Norte 32 Norte 0 1011.3 -1 78
2020-01-22 04:00:00 10.1 23 Norte 35 Norte 0 1011.6 -1.1 77
2020-01-22 03:00:00 9.3 23 Norte 35 Norte 0 1012 -0.8 82
2020-01-22 02:00:00 9.4 24 Norte 32 Norte 0 1012.3 0 87
2020-01-22 01:00:00 8.6 20 Norte 30 Norte 0 1012.7 0.1 93
2020-01-22 00:00:00 7.9 15 Norte 33 Nordeste 0.9 1012.8 0.3 97
2020-01-21 23:00:00 7.3 23 Norte 42 Norte 1.9 1012.3 1.7 99
2020-01-21 22:00:00 7.3 23 Norte 46 Este 5.3 1012.6 1.7 99
2020-01-21 21:00:00 8.1 32 Este 72 Nordeste 11.3 1012.5 2 98
2020-01-21 20:00:00 9.9 50 Nordeste 76 Nordeste 2 1010.6 0.2 98
2020-01-21 19:00:00 9.9 46 Nordeste 74 Nordeste 0.6 1010.9 0.8 97
2020-01-21 18:00:00 10.1 49 Nordeste 76 Nordeste 0.5 1010.5 -0.3 97
2020-01-21 17:00:00 10.1 55 Nordeste 80 Nordeste 2.1 1010.4 -- 98
2020-01-21 16:00:00 10.4 42 Nordeste 72 Este 1.4 1010.1 -- 97
2020-01-21 15:00:00 11.2 47 Este 78 Este 0.1 1010.8 -- 96
2020-01-21 14:00:00 -- -- -- -- -- -- -- -- --
2020-01-21 13:00:00 -- -- -- -- -- -- -- -- --
2020-01-21 12:00:00 -- -- -- -- -- -- -- -- --
2020-01-21 11:00:00 -- -- -- -- -- -- -- -- --
2020-01-21 10:00:00 -- -- -- -- -- -- -- -- --
2020-01-21 09:00:00 -- -- -- -- -- -- -- -- --
2020-01-21 08:00:00 7.8 40 Nordeste 63 Este 0.8 1012.5 -0.5 96
2020-01-21 07:00:00 6.8 35 Nordeste 68 Nordeste 0.5 1012.6 -1.2 95
2020-01-21 06:00:00 6.6 31 Norte 54 Nordeste 0.6 1012.4 -1.9 96
2020-01-21 05:00:00 5.4 35 Nordeste 58 Norte 1 1013 -2.2 96
2020-01-21 04:00:00 5.5 33 Norte 55 Norte 3.8 1013.8 -1.6 96
2020-01-21 03:00:00 5.8 40 Nordeste 61 Norte 2.5 1014.3 -1.8 92
2020-01-21 02:00:00 7.9 40 Nordeste 78 Nordeste 0.2 1015.2 -1.1 77
2020-01-21 01:00:00 8.7 48 Nordeste 78 Nordeste 0 1015.4 -0.9 71
2020-01-21 00:00:00 7.6 41 Nordeste 67 Nordeste 0.6 1016.1 -0.2 81
2020-01-20 23:00:00 8.9 42 Nordeste 68 Nordeste 0 1016.3 0.3 67
2020-01-20 22:00:00 9.2 46 Nordeste 67 Nordeste 0 1016.3 0.4 64
2020-01-20 21:00:00 9.4 44 Nordeste 76 Nordeste 0 1016.3 1 59
2020-01-20 20:00:00 9.8 44 Nordeste 71 Nordeste 0 1016 1 56
2020-01-20 19:00:00 10 44 Nordeste 61 Nordeste 0 1015.9 1 54
2020-01-20 18:00:00 10.2 38 Nordeste 80 Este 0 1015.3 0.5 53
2020-01-20 17:00:00 10.9 46 Nordeste 76 Nordeste 0 1015 0 51
2020-01-20 16:00:00 10.8 37 Nordeste 80 Nordeste 0 1014.9 -0.7 50
2020-01-20 15:00:00 10.7 33 Nordeste 61 Nordeste 0 1014.8 -1.3 49
2020-01-20 14:00:00 9.9 23 Nordeste 37 Nordeste 0 1015 -0.9 51
2020-01-20 13:00:00 9.5 28 Norte 48 Norte 0 1015.6 0.2 52
2020-01-20 12:00:00 9.1 29 Norte 52 Norte 0 1016.1 1.3 51
2020-01-20 11:00:00 9.1 31 Norte 52 Norte 0 1015.9 1.3 51
2020-01-20 10:00:00 8.6 36 Norte 58 Nordeste 0 1015.4 1.3 52
2020-01-20 09:00:00 8.5 31 Nordeste 55 Nordeste 0 1014.8 1.1 51
2020-01-20 08:00:00 8.4 37 Norte 59 Norte 0 1014.6 0.8 53
2020-01-20 07:00:00 9 40 Nordeste 67 Norte 0 1014.1 -0.1 46
2020-01-20 06:00:00 8.6 25 Norte 48 Norte 0 1013.7 -0.9 39
2020-01-20 05:00:00 9.3 30 Norte 48 Norte 0 1013.8 -0.3 29
2020-01-20 04:00:00 9.3 27 Norte 46 Nordeste 0 1014.2 -0.6 29
2020-01-20 03:00:00 9 23 Norte 45 Norte 0 1014.6 -0.4 28
2020-01-20 02:00:00 9.3 28 Norte 63 Noroeste 0 1014.1 -0.3 25
2020-01-20 01:00:00 9.5 29 Norte 61 Norte 0 1014.8 0.7 26
2020-01-20 00:00:00 8.7 23 Norte 33 Norte 0 1015 1.3 30
2020-01-19 23:00:00 8.8 22 Norte 37 Norte 0 1014.4 0.9 28
2020-01-19 22:00:00 9.1 24 Norte 50 Nordeste 0 1014.1 1.4 27
2020-01-19 21:00:00 9.3 33 Nordeste 48 Nordeste 0 1013.7 1.4 27
2020-01-19 20:00:00 7.5 6 Nordeste 15 Norte 0 1013.5 1.9 48
2020-01-19 19:00:00 8.3 10 Nordeste 18 Nordeste 0 1012.7 1.5 53
2020-01-19 18:00:00 8.8 4 Nordeste 8 Este 0 1012.3 1.2 87
2020-01-19 17:00:00 9.7 0 Calma 8 Sudoeste 0 1011.6 0.2 82
2020-01-19 16:00:00 9.7 5 Sur 9 Oeste 0 1011.2 -0.3 81
2020-01-19 15:00:00 9.3 6 Oeste 8 Oeste 0 1011.1 -0.5 77
2020-01-19 14:00:00 9.2 0 Calma 15 Sudeste 0 1011.4 0.9 75
2020-01-19 13:00:00 9 11 Este 17 Este 0 1011.5 1.7 83
2020-01-19 12:00:00 8.8 11 Este 18 Nordeste 0 1011.6 2 88
2020-01-19 11:00:00 8.8 14 Norte 24 Norte 0.2 1010.5 1.1 82
2020-01-19 10:00:00 8.3 16 Norte 22 Norte 1.7 1009.8 1.3 89
2020-01-19 09:00:00 7.9 9 Norte 22 Norte 3.5 1009.6 1.4 92
2020-01-19 08:00:00 8.2 14 Nordeste 30 Norte 2.9 1009.4 1.1 90
2020-01-19 07:00:00 9.1 22 Norte 32 Norte 0.8 1008.5 -0.2 86
2020-01-19 06:00:00 9.7 10 Norte 17 Norte 0 1008.2 -0.9 85
2020-01-19 05:00:00 10.2 11 Nordeste 24 Nordeste 0 1008.3 -1.2 87
2020-01-19 04:00:00 10.3 13 Nordeste 21 Nordeste 0 1008.7 -1.4 89
2020-01-19 03:00:00 9.9 12 Norte 18 Norte 0 1009.1 -1.5 91
2020-01-19 02:00:00 9.6 13 Nordeste 18 Norte 0 1009.5 -1.6 91
2020-01-19 01:00:00 9.4 13 Norte 17 Norte 0 1010.1 -1.9 92
2020-01-19 00:00:00 9.8 13 Norte 21 Norte 0 1010.6 -2 88
2020-01-18 23:00:00 9.2 13 Nordeste 21 Norte 0 1011.1 -1.9 90
2020-01-18 22:00:00 9.2 14 Norte 21 Norte 0.1 1012 -1.2 92
2020-01-18 21:00:00 9.4 15 Norte 22 Norte 1.9 1012.6 -1.2 92
2020-01-18 20:00:00 9.8 11 Norte 13 Norte 0 1013 -1.3 85
2020-01-18 19:00:00 9.5 9 Norte 11 Norte 0 1013.2 -2.2 81
2020-01-18 18:00:00 10.8 0 Calma 17 Sur 0 1013.8 -2.5 74
2020-01-18 17:00:00 13.1 12 Sur 24 Sur 0 1014.3 -3 65
2020-01-18 16:00:00 13.9 14 Sudoeste 26 Sudoeste 0 1015.4 -3.4 59
2020-01-18 15:00:00 14.2 18 Sur 28 Sur 0 1016.3 -3.7 55
2020-01-18 14:00:00 14.4 18 Sur 28 Sur 0 1017.3 -3.4 48
2020-01-18 13:00:00 14.7 13 Sur 21 Sur 0 1018.8 -2.2 45
2020-01-18 12:00:00 13.5 7 Sudeste 11 Sudeste 0 1020 -1.5 45
2020-01-18 11:00:00 10.8 9 Norte 15 Norte 0 1020.7 -0.1 54
2020-01-18 10:00:00 6.7 5 Norte 9 Noroeste 0 1021 0.2 70
2020-01-18 09:00:00 -- 8 Norte 11 Norte 0 1021.5 0.4 --
2020-01-18 08:00:00 5.6 5 Norte 15 Nordeste 0 1020.8 -0.2 68
2020-01-18 07:00:00 6.5 11 Norte 21 Norte 0 1020.8 -0.3 66
2020-01-18 06:00:00 5.7 7 Noroeste 13 Oeste 0 1021.1 -0.7 69
2020-01-18 05:00:00 6.5 4 Sur 15 Sudoeste 0 1021 -0.3 68
2020-01-18 04:00:00 6.8 12 Sudoeste 17 Sudoeste 0 1021.1 -0.4 65
2020-01-18 03:00:00 5.9 5 Este 22 Noroeste 0 1021.8 0.5 63
2020-01-18 02:00:00 7.7 17 Noroeste 28 Oeste 0 1021.3 0.6 59
2020-01-18 01:00:00 8.1 22 Oeste 32 Sur 0 1021.5 2.2 57
2020-01-18 00:00:00 9.3 7 Nordeste 18 Sudoeste 0 1021.3 1.8 43
2020-01-17 23:00:00 12 9 Sur 42 Noroeste 0 1020.7 1.6 35
2020-01-17 22:00:00 12.6 28 Oeste 41 Oeste 0 1019.3 0.5 33
2020-01-17 21:00:00 12.6 8 Oeste 32 Oeste 0 1019.5 1.5 33
2020-01-17 20:00:00 13.5 20 Oeste 37 Oeste 0 1019.1 2.1 32
2020-01-17 19:00:00 13.5 13 Oeste 41 Noroeste 0 1018.8 2.6 36
2020-01-17 18:00:00 14.1 18 Noroeste 39 Noroeste 0 1018 1.7 38
2020-01-17 17:00:00 16.3 14 Oeste 39 Oeste 0 1017 0.7 41
2020-01-17 16:00:00 15.6 30 Oeste 48 Oeste 0 1016.2 -0.4 45
2020-01-17 15:00:00 17.1 28 Oeste 55 Oeste 0 1016.3 -1.1 43
2020-01-17 14:00:00 16.2 46 Oeste 65 Oeste 0 1016.3 -1.5 42
2020-01-17 13:00:00 16.8 31 Oeste 42 Oeste 0 1016.6 -0.7 41
2020-01-17 12:00:00 15.8 21 Noroeste 41 Oeste 0 1017.4 0.4 44
2020-01-17 11:00:00 14.1 7 Sudoeste 11 Sur 0 1017.8 1.2 62
2020-01-17 10:00:00 10 2 Sudoeste 8 Sudoeste 0 1017.3 0.8 94
2020-01-17 09:00:00 5.9 2 Nordeste 13 Norte 0 1017 0.9 97
2020-01-17 08:00:00 6.6 13 Norte 15 Norte 0 1016.6 0 96
2020-01-17 07:00:00 7.6 3 Nordeste 15 Norte 0 1016.5 -0.5 96
2020-01-17 06:00:00 8 7 Nordeste 13 Norte 0 1016.1 -1.1 96
2020-01-17 05:00:00 7.6 5 Norte 11 Norte 0 1016.6 -0.6 96
2020-01-17 04:00:00 6.2 11 Norte 13 Norte 0 1017 -0.8 96
2020-01-17 03:00:00 5.1 8 Norte 15 Norte 0 1017.2 -0.7 94
2020-01-17 02:00:00 4.7 9 Norte 11 Norte 0 1017.2 -0.7 94
2020-01-17 01:00:00 5.5 6 Norte -- -- 0 1017.8 -0.3 94
2020-01-17 00:00:00 5.8 -- -- -- -- 0 1017.9 -0.2 94
2020-01-16 23:00:00 6.1 10 Norte 15 Norte 0 1017.9 0 93
2020-01-16 22:00:00 6.4 13 Norte 15 Norte 0 1018.1 0.5 94
2020-01-16 21:00:00 6.8 -- -- -- -- 0 1018.1 0.7 93
2020-01-16 20:00:00 7.4 9 Noroeste -- -- 0 1017.9 0.7 91
2020-01-16 19:00:00 8.3 4 Oeste 5 Oeste 0 1017.6 0.6 87
2020-01-16 18:00:00 11.5 0 Calma 13 Sur 0 1017.4 0.3 81
2020-01-16 17:00:00 14.3 10 Sur 13 Sur 0 1017.2 -0.5 69
2020-01-16 16:00:00 16.4 4 Sudoeste 13 Sur 0 1017 -1.5 51
2020-01-16 15:00:00 16.2 8 Sur 13 Sudoeste 0 1017.1 -2.3 56
2020-01-16 14:00:00 15.6 9 Sur 18 Sur 0 1017.7 -2.1 61
2020-01-16 13:00:00 15.3 9 Sur 17 Sur 0 1018.5 -1.2 61
2020-01-16 12:00:00 14.7 6 Sur 11 Sudoeste 0 1019.4 0 59
2020-01-16 11:00:00 12.7 2 Oeste 9 Este 0 1019.8 0.8 61
2020-01-16 10:00:00 8.7 3 Norte 13 Noroeste 0 1019.7 0.9 77
2020-01-16 09:00:00 3.8 10 Norte 13 Norte 0 1019.4 0.8 89
2020-01-16 08:00:00 2.4 13 Norte 13 Norte 0 1019 0.5 91
2020-01-16 07:00:00 2.4 8 Norte 13 Norte 0 1018.8 0.4 90
2020-01-16 06:00:00 2.9 9 Norte 15 Nordeste 0 1018.6 0.2 88
2020-01-16 05:00:00 2.8 12 Norte 15 Norte 0 1018.5 0.4 88
2020-01-16 04:00:00 4.7 14 Norte 18 Norte 0 1018.4 0.3 84
2020-01-16 03:00:00 4.9 14 Norte 18 Norte 0 1018.4 0.3 82
2020-01-16 02:00:00 4.7 10 Norte 18 Norte 0 1018.1 0.2 81
2020-01-16 01:00:00 5.1 13 Nordeste 17 Norte 0 1018.1 0.5 81
2020-01-16 00:00:00 4.8 10 Norte 17 Norte 0 1018.1 0.8 85
2020-01-15 23:00:00 4.6 7 Norte 13 Nordeste 0 1017.9 0.7 83
2020-01-15 22:00:00 5.8 10 Nordeste 15 Nordeste 0 1017.6 1.1 81
2020-01-15 21:00:00 5.1 12 Norte 15 Norte 0 1017.3 1.5 84
2020-01-15 20:00:00 7.2 2 Nordeste 15 Oeste 0 1017.2 2.1 80
2020-01-15 19:00:00 8.7 10 Noroeste 13 Noroeste 0 1016.5 2 78
2020-01-15 18:00:00 10.4 8 Oeste 22 Sudoeste 0 1015.8 1 70
2020-01-15 17:00:00 12.7 16 Sudoeste 26 Sudoeste 0 1015.1 0.1 63
2020-01-15 16:00:00 14.9 13 Sudoeste 18 Sudoeste 0 1014.5 -1 49
2020-01-15 15:00:00 13.8 9 Sur 17 Sur 0 1014.8 -1.2 55
2020-01-15 14:00:00 14.3 11 Sudoeste 17 Sudoeste 0 1015 -0.9 46
2020-01-15 13:00:00 14.2 5 Sudoeste 11 Sur 0 1015.5 0.2 43
2020-01-15 12:00:00 12.3 2 Sudeste 8 Sur 0 1016 1.3 51
2020-01-15 11:00:00 8.7 5 Este 9 Este 0 1015.9 1.5 71
2020-01-15 10:00:00 5.2 5 Nordeste 15 Norte 0 1015.3 1.1 83
2020-01-15 09:00:00 0.5 9 Norte 15 Norte 0 1014.7 1 91
2020-01-15 08:00:00 -0.2 10 Nordeste -- -- 0 1014.4 0.9 91
2020-01-15 07:00:00 -0.1 8 Nordeste 13 Nordeste 0 1014.2 0.6 90
2020-01-15 06:00:00 0.2 7 Norte 11 Nordeste 0 1013.7 -0.1 89
2020-01-15 05:00:00 0.7 8 Norte 11 Norte 0 1013.5 -0.2 89
2020-01-15 04:00:00 0.8 9 Norte 13 Norte 0 1013.6 -0.3 88
2020-01-15 03:00:00 1.6 6 Norte 15 Norte 0 1013.8 -0.2 88
2020-01-15 02:00:00 1.2 10 Nordeste 13 Nordeste 0 1013.7 -0.1 87
2020-01-15 01:00:00 1.8 8 Nordeste 13 Norte 0 1013.9 0.1 86
2020-01-15 00:00:00 2.4 7 Norte 15 Norte 0 1014 0.6 84
2020-01-14 23:00:00 2.3 11 Norte 13 Norte 0 1013.8 0.5 85
2020-01-14 22:00:00 3.4 9 Norte 15 Norte 0 1013.8 0.8 81
2020-01-14 21:00:00 3.3 12 Norte 15 Norte 0 1013.4 1 82
2020-01-14 20:00:00 4.9 12 Noroeste -- -- 0 1013.3 1.2 76
2020-01-14 19:00:00 5.9 8 Noroeste 11 Noroeste 0 1013 1.1 71
2020-01-14 18:00:00 10.6 0 Calma 13 Sur 0 1012.4 0.7 49
2020-01-14 17:00:00 13.3 9 Sur 13 Sur 0 1012.1 -0.1 50
2020-01-14 16:00:00 14.8 7 Sur 15 Sur 0 1011.9 -1.2 43
2020-01-14 15:00:00 15.1 6 Sur 15 Sur 0 1011.7 -1.9 41
2020-01-14 14:00:00 15 8 Sur 13 Sur 0 1012.2 -1.5 38
2020-01-14 13:00:00 14.4 9 Sur 13 Sur 0 1013.1 0 36
2020-01-14 12:00:00 12.9 5 Sur 11 Sur 0 1013.6 1 40
2020-01-14 11:00:00 11.1 4 Sudeste 11 Nordeste 0 1013.7 1.1 48
2020-01-14 10:00:00 6.2 5 Nordeste 11 Nordeste 0 1013.1 0.8 68
2020-01-14 09:00:00 1.3 9 Norte 17 Norte 0 1012.6 0.7 78
2020-01-14 08:00:00 -0.7 10 Norte 13 Nordeste 0 1012.6 0.8 86
2020-01-14 07:00:00 -0.1 9 Oeste 11 Noroeste 0 1012.3 0.6 85
2020-01-14 06:00:00 0.5 12 Norte 15 Norte 0 1011.9 -0.1 86
2020-01-14 05:00:00 0 9 Norte 13 Norte 0 1011.8 -0.3 86
2020-01-14 04:00:00 0.2 10 Norte 17 Norte 0 1011.7 -1.1 85
2020-01-14 03:00:00 0.5 11 Norte 13 Norte 0 1012 -1 85
2020-01-14 02:00:00 1 6 Norte 9 Norte 0 1012.1 -0.9 82
2020-01-14 01:00:00 1.8 13 Norte 18 Norte 0 1012.8 -0.3 82
2020-01-14 00:00:00 1.5 5 Norte 13 Nordeste 0 1013 -0.4 84
2020-01-13 23:00:00 2.4 11 Norte 18 Norte 0 1013 -0.5 83
2020-01-13 22:00:00 3.2 16 Norte 18 Norte 0 1013.1 -0.5 83
2020-01-13 21:00:00 3.4 10 Norte 15 Norte 0 1013.4 0 83
2020-01-13 20:00:00 4.2 7 Norte -- -- 0 1013.5 0.2 82
2020-01-13 19:00:00 5.8 9 Noroeste -- -- 0 1013.6 0 82
2020-01-13 18:00:00 8.2 2 Sur -- -- 0 1013.4 -0.3 74
2020-01-13 17:00:00 10.3 9 Sur 13 Sur 0 1013.3 -1.1 66
2020-01-13 16:00:00 11.8 8 Sudoeste 15 Sur 0 1013.6 -2 52
2020-01-13 15:00:00 12.6 9 Sur 15 Sur 0 1013.7 -2.8 50
2020-01-13 14:00:00 13 10 Sur 17 Sur 0 1014.4 -2.5 46
2020-01-13 13:00:00 13 7 Sur 13 Sudoeste 0 1015.6 -1 41
2020-01-13 12:00:00 11.9 5 Sudeste 11 Sudeste 0 1016.5 -0.1 42
2020-01-13 11:00:00 9.7 0 Calma 9 Nordeste 0 1016.9 0.3 50
2020-01-13 10:00:00 5.5 0 Calma 9 Norte 0 1016.6 -0.1 65
2020-01-13 09:00:00 -0.2 6 Noroeste 11 Norte 0 1016.6 -0.3 81
2020-01-13 08:00:00 -1.2 8 Norte 11 Nordeste 0 1016.6 -0.7 83
2020-01-13 07:00:00 -0.8 9 Norte 15 Nordeste 0 1016.7 -1.1 82
2020-01-13 06:00:00 -1.4 6 Norte 11 Norte 0 1016.9 -1.4 83
2020-01-13 05:00:00 -0.9 8 Norte 13 Norte 0 1017.3 -1.4 81
2020-01-13 04:00:00 -0.4 9 Norte 13 Norte 0 1017.8 -1.4 78
2020-01-13 03:00:00 -0.3 9 Norte 13 Norte 0 1018.3 -1.5 79
2020-01-13 02:00:00 -0.2 11 Norte 15 Norte 0 1018.7 -1.6 78
2020-01-13 01:00:00 0.1 12 Norte 13 Norte 0 1019.2 -1.1 77
2020-01-13 00:00:00 0.2 10 Norte 15 Norte 0 1019.8 -0.7 77
2020-01-12 23:00:00 0.9 10 Norte 13 Norte 0 1020.3 -0.4 74
2020-01-12 22:00:00 1.9 9 Norte 13 Norte 0 1020.3 0.3 70
2020-01-12 21:00:00 1.6 8 Nordeste 9 Nordeste 0 1020.5 1 76
2020-01-12 20:00:00 3.8 6 Norte 11 Norte 0 1020.7 1.3 70
2020-01-12 19:00:00 5.7 9 Norte 15 Norte 0 1020 0.6 65
2020-01-12 18:00:00 10.1 5 Norte 18 Oeste 0 1019.5 0 39
2020-01-12 17:00:00 13.6 13 Oeste 21 Oeste 0 1019.4 -0.9 30
2020-01-12 16:00:00 15.5 5 Sudoeste 11 Sudoeste 0 1019.4 -1.6 36
2020-01-12 15:00:00 14.7 3 Sudoeste 11 Sudoeste 0 1019.5 -2.2 41
2020-01-12 14:00:00 14.1 4 Sudoeste 11 Sur 0 1020.3 -1.5 42
2020-01-12 13:00:00 13.5 7 Sur 13 Sudeste 0 1021 0 45
2020-01-12 12:00:00 11.7 6 Sudeste 11 Sudeste 0 1021.7 0.8 50
2020-01-12 11:00:00 9.2 7 Este 13 Este 0 1021.8 1.1 64
2020-01-12 10:00:00 5 0 Calma 11 Nordeste 0 1021 0.4 83
2020-01-12 09:00:00 -- 9 Nordeste 11 Nordeste 0 1020.9 0.6 --
2020-01-12 08:00:00 -0.5 8 Noroeste 11 Norte 0 1020.7 0.6 92
2020-01-12 07:00:00 -0.1 7 Norte 17 Norte 0 1020.6 0.2 91
2020-01-12 06:00:00 0 12 Norte 15 Norte 0 1020.3 -0.2 92
2020-01-12 05:00:00 -0.1 8 Norte 13 Norte 0 1020.1 -0.4 92
2020-01-12 04:00:00 -- 8 Norte 9 Norte 0 1020.4 -0.4 --
2020-01-12 03:00:00 0.3 8 Norte 13 Nordeste 0 1020.5 -0.8 93
2020-01-12 02:00:00 0.8 7 Nordeste 11 Nordeste 0 1020.5 -1.1 92
2020-01-12 01:00:00 0.9 8 Norte -- -- 0 1020.8 -0.6 92
2020-01-12 00:00:00 1.5 6 Norte 9 Norte 0 1021.3 -0.2 91
2020-01-11 23:00:00 2 8 Norte 13 Norte 0 1021.6 0.3 90
2020-01-11 22:00:00 1.5 8 Nordeste 13 Norte 0 1021.4 0.5 89
2020-01-11 21:00:00 3.3 7 Norte 15 Norte 0 1021.5 1.2 86
2020-01-11 20:00:00 4.3 -- -- -- -- 0 1021.3 1.1 85
2020-01-11 19:00:00 5.8 10 Norte 11 Norte 0 1020.9 0.9 80
2020-01-11 18:00:00 8.1 6 Nordeste 17 Sudeste 0 1020.3 0.3 70
2020-01-11 17:00:00 12.1 11 Sudeste 18 Sudeste 0 1020.2 -0.2 55
2020-01-11 16:00:00 14.1 8 Sudeste 18 Este 0 1020 -0.9 42
2020-01-11 15:00:00 14.3 10 Sudeste 15 Sudeste 0 1020 -1.9 42
2020-01-11 14:00:00 13.7 10 Este 21 Oeste 0 1020.4 -1.9 42
2020-01-11 13:00:00 13.1 16 Oeste 22 Oeste 0 1020.9 -0.8 46
2020-01-11 12:00:00 11.5 3 Noroeste 9 Norte 0 1021.9 0.7 52
2020-01-11 11:00:00 9.9 8 Este 13 Este 0 1022.3 1.5 63
2020-01-11 10:00:00 5.8 4 Sudeste 9 Este 0 1021.7 0.8 80
2020-01-11 09:00:00 1.2 7 Este 9 Este 0 1021.2 0.8 89
2020-01-11 08:00:00 1.5 9 Norte 15 Norte 0 1020.8 0.3 90
2020-01-11 07:00:00 0.6 3 Oeste 13 Norte 0 1020.9 0.1 92
2020-01-11 06:00:00 0.3 0 Calma 8 Noroeste 0 1020.4 0 91
2020-01-11 05:00:00 1.4 0 Calma 13 Este 0 1020.5 0.8 91
2020-01-11 04:00:00 2.6 4 Noroeste 13 Nordeste 0 1020.8 1.3 87
2020-01-11 03:00:00 5 7 Norte 24 Oeste 0 1020.4 0.9 79
2020-01-11 02:00:00 3.1 12 Oeste 15 Oeste 0 1019.7 0.8 89
2020-01-11 01:00:00 4.1 10 Este 18 Nordeste 0 1019.5 0.9 89
2020-01-11 00:00:00 2.4 5 Sudeste 9 Sur 0 1019.5 1.2 88
2020-01-10 23:00:00 4.1 5 Nordeste 13 Norte 0 1018.9 0.7 84
2020-01-10 22:00:00 4.7 6 Nordeste 24 Oeste 0 1018.6 0.9 82
2020-01-10 21:00:00 8.4 13 Oeste 24 Oeste 0 1018.3 1 72
2020-01-10 20:00:00 5.7 4 Nordeste 13 Noroeste 0 1018.2 0.9 83
2020-01-10 19:00:00 6.7 10 Nordeste 15 Noroeste 0 1017.7 0.6 79
2020-01-10 18:00:00 9 8 Norte 22 Oeste 0 1017.3 0.4 70
2020-01-10 17:00:00 10.8 16 Oeste 28 Oeste 0 1017.3 0.3 66
2020-01-10 16:00:00 11.4 17 Oeste 32 Noroeste 0 1017.1 -0.5 64
2020-01-10 15:00:00 11.8 16 Oeste 22 Oeste 0 1016.9 -1.2 64
2020-01-10 14:00:00 11.3 12 Noroeste 21 Norte 0 1017 -0.5 65
2020-01-10 13:00:00 10.5 14 Norte 26 Norte 0 1017.6 1.1 73
2020-01-10 12:00:00 8.6 15 Norte 24 Norte 0.3 1018.1 2.3 82
2020-01-10 11:00:00 8.4 8 Norte 22 Nordeste 0 1017.5 2.1 76
2020-01-10 10:00:00 7.7 13 Nordeste 17 Nordeste 0 1016.5 1.7 80
2020-01-10 09:00:00 6.7 9 Nordeste 18 Oeste 0 1015.8 1.5 85
2020-01-10 08:00:00 6 0 Calma 11 Este 0 1015.4 1.3 82
2020-01-10 07:00:00 6.4 7 Oeste 18 Oeste 0 1014.8 0.4 80
2020-01-10 06:00:00 7.5 3 Sudoeste 9 Oeste 0 1014.3 -0.1 85
2020-01-10 05:00:00 7.9 9 Oeste 22 Oeste 0 1014.1 -0.3 84
2020-01-10 04:00:00 7.7 9 Norte 13 Norte 0 1014.4 -0.4 90
2020-01-10 03:00:00 7.5 10 Norte 15 Norte 0 1014.4 -0.6 92
2020-01-10 02:00:00 8.5 3 Nordeste -- -- -- 1014.4 -1.1 89
2020-01-10 01:00:00 9.4 7 Oeste 9 Oeste 0 1014.8 -0.9 88
2020-01-10 00:00:00 9.6 8 Sudoeste 11 Oeste 0 1015 -0.9 85
2020-01-09 23:00:00 9.8 8 Oeste 11 Oeste 0 1015.5 -0.7 86
2020-01-09 22:00:00 9.7 8 Oeste 9 Oeste 0 1015.7 -0.7 86
2020-01-09 21:00:00 9.6 8 Sudoeste 15 Oeste 0 1015.9 0.1 88
2020-01-09 20:00:00 9 3 Oeste 11 Noroeste 0 1016.2 0.3 90
2020-01-09 19:00:00 8.4 7 Oeste 11 Oeste 0 1016.4 0 90
2020-01-09 18:00:00 9.5 9 Sudoeste 17 Sudoeste 0 1015.8 -1.1 83
2020-01-09 17:00:00 12.6 13 Sur 18 Sur 0 1015.9 -1.6 71
2020-01-09 16:00:00 13.3 12 Sudoeste 22 Sudoeste 0 1016.4 -1.9 67
2020-01-09 15:00:00 13.3 15 Sudoeste 22 Sudoeste 0 1016.9 -2.3 68
2020-01-09 14:00:00 13.9 13 Sur 24 Sur 0 1017.5 -2.2 66
2020-01-09 13:00:00 13.9 9 Sudoeste 15 Sur 0 1018.3 -1 66
2020-01-09 12:00:00 13 4 Sur 9 Sudoeste 0 1019.2 0.2 70
2020-01-09 11:00:00 9.8 4 Este 9 Nordeste 0 1019.7 0.7 76
2020-01-09 10:00:00 7.5 8 Norte 11 Norte 0 1019.3 0.1 85
2020-01-09 09:00:00 -- 8 Nordeste 17 Norte 0 1019 -0.5 --
2020-01-09 08:00:00 3.1 13 Norte 17 Norte 0 1019 -0.7 94
2020-01-09 07:00:00 3.3 9 Norte 17 Norte 0 1019.2 -1.1 94
2020-01-09 06:00:00 3.8 12 Norte 15 Norte 0 1019.5 -1.2 94
2020-01-09 05:00:00 4.3 6 Norte 11 Norte 0 1019.7 -1.1 92
2020-01-09 04:00:00 6.1 6 Norte 9 Norte 0 1020.3 -0.9 94
2020-01-09 03:00:00 4.9 4 Norte 15 Norte 0 1020.7 -1 94
2020-01-09 02:00:00 4.9 13 Norte 15 Norte 0 1020.8 -0.9 94
2020-01-09 01:00:00 4.4 9 Nordeste 11 Norte 0 1021.2 -0.6 93
2020-01-09 00:00:00 4.9 8 Norte 11 Norte 0 1021.7 -0.1 92
2020-01-08 23:00:00 5.6 7 Norte 15 Norte 0 1021.7 -0.2 91
2020-01-08 22:00:00 5.8 10 Norte 15 Norte 0 1021.8 -0.1 92
2020-01-08 21:00:00 6.7 -- -- -- -- 0 1021.8 0.4 89
2020-01-08 20:00:00 7.6 10 Noroeste -- -- 0 1021.9 0.9 86
2020-01-08 19:00:00 8.4 8 Noroeste -- -- 0 1021.9 1.3 83
2020-01-08 18:00:00 11.6 -- -- -- -- 0 1021.4 0.8 71
2020-01-08 17:00:00 14.4 12 Sur 17 Sur 0 1021 0 61
2020-01-08 16:00:00 15.8 13 Sudoeste 17 Sur 0 1020.6 -1 57
2020-01-08 15:00:00 17.1 10 Sur 17 Sur 0 1020.6 -1.9 53
2020-01-08 14:00:00 16.9 7 Sudoeste 15 Oeste 0 1021 -2.2 52
2020-01-08 13:00:00 16.3 5 Sudoeste 15 Sudoeste 0 1021.6 -0.9 56
2020-01-08 12:00:00 15 5 Oeste 17 Norte 0 1022.5 0.8 59
2020-01-08 11:00:00 13.3 11 Nordeste 17 Nordeste 0 1023.2 2.5 54
2020-01-08 10:00:00 8.7 10 Norte 22 Norte 0 1022.5 2.3 68
2020-01-08 09:00:00 2.7 14 Nordeste 24 Nordeste 0 1021.7 2.1 82
2020-01-08 08:00:00 1.4 6 Nordeste 13 Nordeste 0 1020.7 1.2 84
2020-01-08 07:00:00 1.5 7 Norte 13 Norte 0 1020.2 1.1 85
2020-01-08 06:00:00 1.3 9 Nordeste 17 Norte 0 1019.6 0.5 86
2020-01-08 05:00:00 0.6 14 Nordeste 15 Nordeste 0 1019.5 0.7 89
2020-01-08 04:00:00 0.3 8 Nordeste 9 Nordeste 0 1019.1 0.1 88
2020-01-08 03:00:00 0.7 5 Nordeste 11 Nordeste 0 1019.1 -0.2 89
2020-01-08 02:00:00 1.6 10 Norte 15 Nordeste 0 1018.8 -0.9 89
2020-01-08 01:00:00 1.1 9 Nordeste 11 Nordeste 0 1019 -0.8 88
2020-01-08 00:00:00 2.2 7 Nordeste 15 Nordeste 0 1019.3 -0.8 86
2020-01-07 23:00:00 2.3 7 Nordeste 15 Norte 0 1019.7 -0.5 88
2020-01-07 22:00:00 2.7 6 Norte 13 Nordeste 0 1019.8 -0.1 85
2020-01-07 21:00:00 3.3 8 Nordeste 11 Norte 0 1020.1 0.8 85
2020-01-07 20:00:00 3.8 7 Norte 13 Nordeste 0 1020.2 1.2 84
2020-01-07 19:00:00 5 4 Norte 13 Nordeste 0 1019.9 0.9 81
2020-01-07 18:00:00 6.5 10 Nordeste 13 Nordeste 0 1019.3 0.1 77
2020-01-07 17:00:00 11.5 8 Este 11 Este 0 1019 -0.9 59
2020-01-07 16:00:00 12.7 8 Nordeste 15 Nordeste 0 1019 -1.8 54
2020-01-07 15:00:00 13.2 10 Nordeste 15 Este 0 1019.2 -2.4 53
2020-01-07 14:00:00 13.1 6 Este 11 Este 0 1019.9 -2.4 53
2020-01-07 13:00:00 12.3 5 Este 13 Sudeste 0 1020.8 -1.5 55
2020-01-07 12:00:00 11.2 5 Este 9 Este 0 1021.6 -0.1 61
2020-01-07 11:00:00 9 4 Sur 8 Sur 0 1022.3 0.9 69
2020-01-07 10:00:00 5.5 0 Calma 8 Norte 0 1022.3 1 86
2020-01-07 09:00:00 0.6 4 Noroeste 8 Noroeste 0 1021.7 0.5 93
2020-01-07 08:00:00 0.8 4 Este 11 Norte 0 1021.4 0.2 94
2020-01-07 07:00:00 0.7 7 Norte 13 Nordeste 0 1021.3 -0.4 92
2020-01-07 06:00:00 1.2 8 Oeste 13 Norte 0 1021.2 -0.6 92
2020-01-07 05:00:00 1.5 9 Norte 13 Norte 0 1021.2 -0.6 91
2020-01-07 04:00:00 1.5 6 Nordeste 11 Norte 0 1021.7 0.2 89
2020-01-07 03:00:00 -- 8 Noroeste 13 Nordeste 0 1021.8 0.3 --
2020-01-07 02:00:00 2.3 5 Norte 11 Nordeste 0 1021.8 0.8 90
2020-01-07 01:00:00 3 6 Norte 11 Norte 0 1021.5 0.9 88
2020-01-07 00:00:00 3.5 11 Norte 15 Nordeste 0 1021.5 1.3 88
2020-01-06 23:00:00 4.4 4 Norte 17 Nordeste 0 1021 1 87
2020-01-06 22:00:00 5.2 13 Norte 18 Norte 0 1020.6 0.9 89
2020-01-06 21:00:00 6.3 8 Nordeste 18 Norte 0 1020.2 1 86
2020-01-06 20:00:00 6.4 13 Norte -- -- 0 1020 1 91
2020-01-06 19:00:00 6.9 5 Noroeste -- -- 0 1019.7 0.9 87
2020-01-06 18:00:00 9.2 -- -- -- -- 0 1019.2 0.6 81
2020-01-06 17:00:00 12.6 10 Sudoeste 17 Sudoeste 0 1019 0 70
2020-01-06 16:00:00 13.9 12 Sudoeste 18 Sur 0 1018.8 -1.2 66
2020-01-06 15:00:00 14.4 12 Sur 18 Sur 0 1018.6 -2.2 63
2020-01-06 14:00:00 14.8 12 Sudoeste 18 Sur 0 1019 -2.2 62
2020-01-06 13:00:00 14.4 9 Sudoeste 15 Sudoeste 0 1020 -1 62
2020-01-06 12:00:00 13.5 3 Oeste 9 Este 0 1020.8 0.3 63
2020-01-06 11:00:00 10.4 7 Nordeste 13 Nordeste 0 1021.2 1 66
2020-01-06 10:00:00 6.7 7 Nordeste 11 Nordeste 0 1021 1 74